createdAt,value
2022-12-14T00:04:16.178Z,103.80
2022-12-14T00:14:36.181Z,92.60
2022-12-14T00:24:49.172Z,117.00
2022-12-14T00:35:02.244Z,107.50
2022-12-14T00:45:16.223Z,95.20
2022-12-14T00:55:28.226Z,110.00
2022-12-14T01:05:49.407Z,117.20
2022-12-14T01:16:18.404Z,117.40
2022-12-14T01:26:32.201Z,113.70
2022-12-14T01:36:45.249Z,122.40
2022-12-14T01:47:08.846Z,128.10
2022-12-14T01:57:26.250Z,131.70
2022-12-14T02:07:39.235Z,122.40
2022-12-14T02:17:54.248Z,119.90
2022-12-14T02:28:41.273Z,121.10
2022-12-14T02:38:58.280Z,118.80
2022-12-14T02:49:19.290Z,123.40
2022-12-14T02:59:32.276Z,121.80
2022-12-14T03:09:45.301Z,118.80
2022-12-14T03:20:02.288Z,113.60
2022-12-14T03:30:27.142Z,106.20
2022-12-14T03:41:00.314Z,100.70
2022-12-14T03:51:28.335Z,108.00
2022-12-14T04:01:45.383Z,98.40
2022-12-14T04:12:35.345Z,107.70
2022-12-14T04:22:53.308Z,110.50
2022-12-14T04:33:34.335Z,106.70
2022-12-14T04:43:51.341Z,95.80
2022-12-14T04:54:08.357Z,93.40
2022-12-14T05:04:41.333Z,93.20
2022-12-14T05:15:15.340Z,97.30
2022-12-14T05:25:28.381Z,100.10
2022-12-14T05:35:41.339Z,89.90
2022-12-14T05:45:54.452Z,83.80
2022-12-14T05:56:07.348Z,92.20
2022-12-14T06:06:21.381Z,92.40
2022-12-14T06:16:40.356Z,89.25
2022-12-14T06:26:53.425Z,94.40
2022-12-14T06:37:06.458Z,108.40
2022-12-14T06:47:19.419Z,92.80
2022-12-14T06:57:32.364Z,88.00
2022-12-14T07:07:45.426Z,87.50
2022-12-14T07:17:58.402Z,81.90
2022-12-14T07:28:11.437Z,79.90
2022-12-14T07:38:25.403Z,84.00
2022-12-14T07:48:38.435Z,84.40
2022-12-14T07:58:51.433Z,80.60
2022-12-14T08:09:08.439Z,79.00
2022-12-14T08:19:22.427Z,81.70
2022-12-14T08:29:35.457Z,85.50
2022-12-14T08:39:49.504Z,84.10
2022-12-14T08:50:02.487Z,84.40
2022-12-14T09:00:17.437Z,94.50
2022-12-14T09:10:30.502Z,83.70
2022-12-14T09:20:43.463Z,77.30
2022-12-14T09:31:01.495Z,76.30
2022-12-14T09:41:43.488Z,69.40
2022-12-14T09:51:58.494Z,64.90
2022-12-14T10:02:41.652Z,64.90
2022-12-14T10:13:00.502Z,59.00
2022-12-14T10:23:16.948Z,54.90
2022-12-14T10:33:37.510Z,58.40
2022-12-14T10:44:11.480Z,58.30
2022-12-14T10:54:38.513Z,50.70
2022-12-14T11:05:03.529Z,50.40
2022-12-14T11:15:39.546Z,59.00
2022-12-14T11:25:58.528Z,55.60
2022-12-14T11:36:11.627Z,54.00
2022-12-14T11:46:24.591Z,64.60
2022-12-14T11:56:44.542Z,49.50
2022-12-14T12:07:02.846Z,54.50
2022-12-14T12:17:27.583Z,54.90
2022-12-14T12:27:40.558Z,54.50
2022-12-14T12:37:57.608Z,59.30
2022-12-14T12:48:47.589Z,60.30
2022-12-14T12:59:00.633Z,58.80
2022-12-14T13:09:24.568Z,57.10
2022-12-14T13:19:52.596Z,57.10
2022-12-14T13:30:29.585Z,59.40
2022-12-14T13:40:47.605Z,59.50
2022-12-14T13:51:05.731Z,63.80
2022-12-14T14:01:26.724Z,58.70
2022-12-14T14:11:42.749Z,56.00
2022-12-14T14:22:24.554Z,58.80
2022-12-14T14:32:49.608Z,59.90
2022-12-14T14:43:07.651Z,57.90
2022-12-14T14:53:34.633Z,62.70
2022-12-14T15:03:55.717Z,53.90
2022-12-14T15:14:11.679Z,55.90
2022-12-14T15:24:24.657Z,58.20
2022-12-14T15:34:37.648Z,56.80
2022-12-14T15:44:57.670Z,53.70
2022-12-14T15:55:10.664Z,54.60
2022-12-14T16:05:29.667Z,51.60
2022-12-14T16:15:49.679Z,49.10
2022-12-14T16:26:31.704Z,46.60
2022-12-14T16:37:07.981Z,52.20
2022-12-14T16:47:22.739Z,59.30
2022-12-14T16:57:35.764Z,59.00
2022-12-14T17:07:48.806Z,62.40
2022-12-14T17:18:04.795Z,61.90
2022-12-14T17:28:31.835Z,69.00
2022-12-14T17:38:43.780Z,60.55
2022-12-14T17:48:58.437Z,62.80
2022-12-14T17:59:20.792Z,63.10
2022-12-14T18:09:33.816Z,60.60
2022-12-14T18:19:47.937Z,61.40
2022-12-14T18:30:02.826Z,68.00
2022-12-14T18:40:16.788Z,64.50
2022-12-14T18:50:29.884Z,67.30
2022-12-14T19:00:43.839Z,77.30
2022-12-14T19:11:03.855Z,72.10
2022-12-14T19:21:17.901Z,82.50
2022-12-14T19:31:30.916Z,79.10
2022-12-14T19:41:43.905Z,84.70
2022-12-14T19:51:56.869Z,72.00
2022-12-14T20:02:09.993Z,74.00
2022-12-14T20:12:29.861Z,78.20
2022-12-14T20:22:42.899Z,71.30
2022-12-14T20:32:55.874Z,67.90
2022-12-14T20:43:08.905Z,68.40
2022-12-14T20:53:21.812Z,79.20
2022-12-14T21:03:35.538Z,78.40
2022-12-14T21:13:48.817Z,91.10
2022-12-14T21:24:01.877Z,136.10
2022-12-14T21:34:14.830Z,155.60
2022-12-14T21:44:27.895Z,85.70
2022-12-14T21:54:40.864Z,67.70
2022-12-14T22:04:54.912Z,72.40
2022-12-14T22:15:07.877Z,74.60
2022-12-14T22:25:20.926Z,72.60
2022-12-14T22:35:33.846Z,76.80
2022-12-14T22:45:46.931Z,85.00
2022-12-14T22:55:59.882Z,77.20
2022-12-14T23:06:13.921Z,77.20
2022-12-14T23:16:51.932Z,84.00
2022-12-14T23:27:22.932Z,82.10
2022-12-14T23:37:53.890Z,80.20
2022-12-14T23:48:25.956Z,77.40
2022-12-14T23:58:57.927Z,74.10
